This is the latest recevied weather packets stored in our database for station/object W6JCZ-13. If no packets are shown the sender has not sent any weather packets the latest 10 day(s).
| Time | Temp. | Humidity | Pressure | Rain* | Wind** | Luminosity | Snow |
|---|---|---|---|---|---|---|---|
| 1777952117 | 13.33° C | 88% | 1013.5 hPa | 2.54 mm | - | - | - |
| 1777951517 | 13.33° C | 88% | 1013.7 hPa | 2.03 mm | - | - | - |
| 1777950917 | 13.33° C | 88% | 1013.6 hPa | 1.52 mm | - | - | - |
| 1777950317 | 13.33° C | 88% | 1013.2 hPa | 1.78 mm | - | - | - |
| 1777949717 | 13.33° C | 87% | 1012.9 hPa | 2.29 mm | - | - | - |
| 1777949117 | 13.33° C | 87% | 1012 hPa | 2.79 mm | - | - | - |
| 1777948517 | 13.33° C | 87% | 1011.6 hPa | 2.79 mm | - | - | - |
| 1777947917 | 13.33° C | 87% | 1011.7 hPa | 3.05 mm | - | - | - |
| 1777947317 | 13.33° C | 87% | 1012.1 hPa | 3.3 mm | - | - | - |
| 1777946717 | 13.33° C | 87% | 1012.1 hPa | 3.05 mm | - | - | - |
| 1777945517 | 13.89° C | 87% | 1012.3 hPa | 2.03 mm | - | - | - |
| 1777944917 | 13.89° C | 87% | 1012.4 hPa | 2.03 mm | - | - | - |
| 1777944316 | 13.89° C | 86% | 1012.7 hPa | 1.52 mm | - | - | - |
| 1777943720 | 13.89° C | 85% | 1012.8 hPa | 1.02 mm | - | - | - |
| 1777943116 | 13.89° C | 85% | 1013 hPa | 0.51 mm | - | - | - |
| 1777942516 | 14.44° C | 84% | 1013.1 hPa | 0.25 mm | - | - | - |
| 1777941917 | 14.44° C | 84% | 1013 hPa | 0.51 mm | - | - | - |
| 1777941316 | 14.44° C | 84% | 1012.8 hPa | 0.51 mm | - | - | - |
| 1777940716 | 14.44° C | 84% | 1012.7 hPa | 0.76 mm | - | - | - |
| 1777940117 | 14.44° C | 84% | 1012.8 hPa | 0.76 mm | - | - | - |
| 1777939516 | 14.44° C | 83% | 1012.7 hPa | 1.02 mm | - | - | - |
| 1777938916 | 15° C | 83% | 1012.7 hPa | 1.02 mm | - | - | - |
| 1777938316 | 15° C | 83% | 1012.7 hPa | 1.02 mm | - | - | - |
| 1777937716 | 15° C | 83% | 1012.6 hPa | 0.76 mm | - | - | - |
| 1777937116 | 15° C | 83% | 1012.7 hPa | 0.51 mm | - | - | - |
* Rain latest hour (hover to see other rain measurements)
** Current wind speed in m/s (hover to see current wind gust speed)